createdAt,value
2019-03-01T00:00:25.649Z,9.19
2019-03-01T00:05:25.597Z,9.19
2019-03-01T00:10:26.809Z,9.25
2019-03-01T00:15:25.653Z,9.31
2019-03-01T00:20:25.657Z,9.38
2019-03-01T00:25:25.648Z,9.5
2019-03-01T00:30:25.569Z,9.56
2019-03-01T00:35:25.756Z,9.56
2019-03-01T00:40:25.707Z,9.63
2019-03-01T00:45:25.618Z,9.69
2019-03-01T00:50:25.673Z,9.75
2019-03-01T00:55:25.656Z,9.75
2019-03-01T01:00:25.678Z,9.75
2019-03-01T01:05:25.596Z,9.75
2019-03-01T01:10:25.642Z,9.69
2019-03-01T01:15:25.622Z,9.56
2019-03-01T01:20:25.637Z,9.44
2019-03-01T01:25:25.635Z,9.31
2019-03-01T01:30:25.641Z,9.25
2019-03-01T01:35:25.684Z,9.25
2019-03-01T01:40:25.634Z,9.19
2019-03-01T01:45:25.701Z,9.19
2019-03-01T01:50:25.653Z,9.19
2019-03-01T01:55:25.706Z,9.19
2019-03-01T02:00:25.701Z,9.19
2019-03-01T02:05:25.644Z,9.25
2019-03-01T02:10:25.694Z,9.25
2019-03-01T02:15:25.622Z,9.25
2019-03-01T02:20:25.718Z,9.25
2019-03-01T02:25:25.627Z,9.25
2019-03-01T02:30:25.679Z,9.19
2019-03-01T02:35:25.675Z,9.19
2019-03-01T02:40:25.709Z,9.19
2019-03-01T02:45:25.721Z,9.19
2019-03-01T02:50:25.676Z,9.19
2019-03-01T02:55:25.688Z,9.25
2019-03-01T03:00:25.685Z,9.25
2019-03-01T03:05:25.702Z,9.31
2019-03-01T03:10:25.686Z,9.31
2019-03-01T03:15:25.738Z,9.31
2019-03-01T03:20:25.742Z,9.38
2019-03-01T03:25:25.665Z,9.31
2019-03-01T03:30:25.714Z,9.31
2019-03-01T03:35:25.746Z,9.31
2019-03-01T03:40:25.716Z,9.31
2019-03-01T03:45:25.741Z,9.25
2019-03-01T03:50:25.674Z,9.25
2019-03-01T03:55:25.713Z,9.19
2019-03-01T04:00:25.764Z,9.19
2019-03-01T04:05:25.803Z,9.06
2019-03-01T04:10:25.806Z,9.06
2019-03-01T04:15:25.810Z,9
2019-03-01T04:20:25.802Z,9
2019-03-01T04:25:25.741Z,8.94
2019-03-01T04:30:25.734Z,8.94
2019-03-01T04:35:25.699Z,8.88
2019-03-01T04:40:25.769Z,8.88
2019-03-01T04:45:25.695Z,8.81
2019-03-01T04:50:25.740Z,8.81
2019-03-01T04:55:25.799Z,8.81
2019-03-01T05:00:25.737Z,8.81
2019-03-01T05:05:25.798Z,8.75
2019-03-01T05:10:25.707Z,8.75
2019-03-01T05:15:25.718Z,8.69
2019-03-01T05:20:25.807Z,8.69
2019-03-01T05:25:25.802Z,8.69
2019-03-01T05:30:25.755Z,8.63
2019-03-01T05:35:25.762Z,8.63
2019-03-01T05:40:25.760Z,8.63
2019-03-01T05:45:25.758Z,8.63
2019-03-01T05:50:25.769Z,8.63
2019-03-01T05:55:25.804Z,8.56
2019-03-01T06:00:25.734Z,8.56
2019-03-01T06:05:25.778Z,8.56
2019-03-01T06:10:25.821Z,8.56
2019-03-01T06:15:25.777Z,8.56
2019-03-01T06:20:25.811Z,8.56
2019-03-01T06:25:25.804Z,8.5
2019-03-01T06:30:25.828Z,8.5
2019-03-01T06:35:25.836Z,8.5
2019-03-01T06:40:25.806Z,8.5
2019-03-01T06:45:25.795Z,8.5
2019-03-01T06:50:25.786Z,8.5
2019-03-01T06:55:25.786Z,8.44
2019-03-01T07:00:25.849Z,8.38
2019-03-01T07:05:30.814Z,8.25
2019-03-01T07:10:25.769Z,8.25
2019-03-01T07:15:25.817Z,8.25
2019-03-01T07:20:25.850Z,8.25
2019-03-01T07:25:25.820Z,8.38
2019-03-01T07:30:25.937Z,8.44
2019-03-01T07:35:25.854Z,8.5
2019-03-01T07:40:25.813Z,8.5
2019-03-01T07:45:25.871Z,8.56
2019-03-01T07:50:25.863Z,8.63
2019-03-01T07:55:28.270Z,8.69
2019-03-01T08:00:25.953Z,8.69
2019-03-01T08:05:25.788Z,8.75
2019-03-01T08:10:25.872Z,8.81
2019-03-01T08:15:25.875Z,8.88
2019-03-01T08:20:25.825Z,8.94
2019-03-01T08:25:25.846Z,9
2019-03-01T08:30:25.804Z,9
2019-03-01T08:35:28.166Z,9.06
2019-03-01T08:40:25.900Z,9
2019-03-01T08:45:25.840Z,9.31
2019-03-01T08:50:25.901Z,9.38
2019-03-01T08:55:25.811Z,9.56
2019-03-01T09:00:26.645Z,9.69
2019-03-01T09:05:25.906Z,9.38
2019-03-01T09:10:28.993Z,9.56
2019-03-01T09:15:25.870Z,9.88
2019-03-01T09:20:25.884Z,10.06
2019-03-01T09:25:25.865Z,10.75
2019-03-01T09:30:25.874Z,10.56
2019-03-01T09:35:25.883Z,10.31
2019-03-01T09:40:28.799Z,10.25
2019-03-01T09:45:35.540Z,10.31
2019-03-01T09:50:25.883Z,10.19
2019-03-01T09:55:25.849Z,10.13
2019-03-01T10:00:25.902Z,10.13
2019-03-01T10:05:30.895Z,10.19
2019-03-01T10:10:25.873Z,10.25
2019-03-01T10:15:25.893Z,10.38
2019-03-01T10:20:26.137Z,10.56
2019-03-01T10:25:25.884Z,11.06
2019-03-01T10:30:25.936Z,10.81
2019-03-01T10:35:25.898Z,10.69
2019-03-01T10:40:25.913Z,10.81
2019-03-01T10:45:25.864Z,10.75
2019-03-01T10:50:25.915Z,10.88
2019-03-01T10:55:25.957Z,11.06
2019-03-01T11:00:25.911Z,11.13
2019-03-01T11:05:25.928Z,11.38
2019-03-01T11:10:25.876Z,11.25
2019-03-01T11:15:25.921Z,11.19
2019-03-01T11:20:25.954Z,11.31
2019-03-01T11:25:25.894Z,11
2019-03-01T11:30:25.929Z,10.81
2019-03-01T11:35:25.897Z,10.69
2019-03-01T11:40:25.988Z,10.56
2019-03-01T11:45:25.922Z,10.5
2019-03-01T11:50:25.986Z,10.25
2019-03-01T11:55:25.934Z,9.5
2019-03-01T12:00:25.940Z,9.13
2019-03-01T12:05:25.955Z,9.25
2019-03-01T12:10:25.907Z,9.44
2019-03-01T12:15:26.001Z,9.44
2019-03-01T12:20:25.979Z,9.5
2019-03-01T12:25:25.915Z,9.56
2019-03-01T12:30:26.000Z,9.75
2019-03-01T12:35:26.007Z,9.88
2019-03-01T12:40:26.012Z,10
2019-03-01T12:45:25.951Z,10.44
2019-03-01T12:50:25.975Z,10.69
2019-03-01T12:55:26.017Z,10.88
2019-03-01T13:00:25.960Z,10.81
2019-03-01T13:05:29.097Z,10.63
2019-03-01T13:10:26.022Z,10.44
2019-03-01T13:15:25.986Z,10.06
2019-03-01T13:20:25.967Z,9.5
2019-03-01T13:25:29.203Z,9.5
2019-03-01T13:30:26.033Z,9.56
2019-03-01T13:35:27.412Z,9.44
2019-03-01T13:40:25.949Z,9.31
2019-03-01T13:45:25.995Z,8.81
2019-03-01T13:50:25.953Z,8.69
2019-03-01T13:55:27.642Z,8.56
2019-03-01T14:00:26.041Z,8.56
2019-03-01T14:05:26.058Z,8.56
2019-03-01T14:10:26.127Z,8.44
2019-03-01T14:15:26.002Z,8.44
2019-03-01T14:20:26.043Z,8.44
2019-03-01T14:25:26.050Z,8.44
2019-03-01T14:30:29.996Z,8.44
2019-03-01T14:35:27.091Z,8.38
2019-03-01T14:40:26.015Z,8.38
2019-03-01T14:45:26.135Z,8.44
2019-03-01T14:50:26.014Z,8.5
2019-03-01T14:55:26.070Z,8.44
2019-03-01T15:00:26.080Z,8.44
2019-03-01T15:05:25.978Z,8.31
2019-03-01T15:10:28.692Z,8.31
2019-03-01T15:15:27.565Z,8.25
2019-03-01T15:20:26.074Z,8.25
2019-03-01T15:25:26.079Z,8.25
2019-03-01T15:30:26.029Z,8.25
2019-03-01T15:35:26.088Z,8.13
2019-03-01T15:40:27.735Z,8.13
2019-03-01T15:45:26.087Z,7.81
2019-03-01T15:50:27.196Z,7.69
2019-03-01T15:55:26.041Z,7.56
2019-03-01T16:00:29.361Z,7.38
2019-03-01T16:05:26.047Z,7.19
2019-03-01T16:10:26.021Z,7.19
2019-03-01T16:15:26.068Z,7.19
2019-03-01T16:20:28.410Z,7.13
2019-03-01T16:25:26.116Z,7.06
2019-03-01T16:30:26.025Z,7.06
2019-03-01T16:35:26.100Z,7
2019-03-01T16:40:26.034Z,7
2019-03-01T16:45:26.072Z,6.81
2019-03-01T16:50:26.088Z,6.63
2019-03-01T16:55:27.715Z,6.38
2019-03-01T17:00:26.083Z,6.19
2019-03-01T17:05:26.123Z,6
2019-03-01T17:10:26.343Z,5.94
2019-03-01T17:15:26.084Z,5.81
2019-03-01T17:20:26.081Z,5.75
2019-03-01T17:25:26.741Z,5.56
2019-03-01T17:30:26.108Z,5.44
2019-03-01T17:35:26.099Z,5.31
2019-03-01T17:40:29.197Z,5.19
2019-03-01T17:45:26.062Z,5.13
2019-03-01T17:50:31.113Z,5.06
2019-03-01T17:55:26.161Z,5.06
2019-03-01T18:00:26.641Z,5
2019-03-01T18:05:26.159Z,5.06
2019-03-01T18:10:32.045Z,5.06
2019-03-01T18:15:26.087Z,5.06
2019-03-01T18:20:26.080Z,5.06
2019-03-01T18:25:27.108Z,5.06
2019-03-01T18:30:26.118Z,5.06
2019-03-01T18:35:26.082Z,4.94
2019-03-01T18:40:26.190Z,4.88
2019-03-01T18:45:26.133Z,4.81
2019-03-01T18:50:27.547Z,4.81
2019-03-01T18:55:26.210Z,4.75
2019-03-01T19:00:26.099Z,4.81
2019-03-01T19:05:26.240Z,4.81
2019-03-01T19:10:27.496Z,4.81
2019-03-01T19:15:26.306Z,4.75
2019-03-01T19:20:26.199Z,4.69
2019-03-01T19:25:26.519Z,4.63
2019-03-01T19:30:26.159Z,4.56
2019-03-01T19:35:29.503Z,4.56
2019-03-01T19:40:26.146Z,4.56
2019-03-01T19:45:26.199Z,4.5
2019-03-01T19:50:26.207Z,4.5
2019-03-01T19:55:26.222Z,4.44
2019-03-01T20:00:26.177Z,4.38
2019-03-01T20:05:27.740Z,4.31
2019-03-01T20:10:26.207Z,4.19
2019-03-01T20:15:26.175Z,4.13
2019-03-01T20:20:33.312Z,4.06
2019-03-01T20:25:26.178Z,4
2019-03-01T20:30:30.030Z,4
2019-03-01T20:35:26.280Z,3.94
2019-03-01T20:40:26.959Z,3.94
2019-03-01T20:45:29.772Z,3.94
2019-03-01T20:50:26.197Z,3.88
2019-03-01T20:55:26.179Z,3.88
2019-03-01T21:00:27.259Z,3.88
2019-03-01T21:05:28.828Z,3.81
2019-03-01T21:10:26.226Z,3.81
2019-03-01T21:15:26.161Z,3.81
2019-03-01T21:20:26.252Z,3.81
2019-03-01T21:25:26.251Z,3.81
2019-03-01T21:30:26.217Z,3.81
2019-03-01T21:35:26.352Z,3.81
2019-03-01T21:40:26.254Z,3.81
2019-03-01T21:45:26.167Z,3.81
2019-03-01T21:50:26.241Z,3.81
2019-03-01T21:55:28.461Z,3.81
2019-03-01T22:00:29.459Z,3.69
2019-03-01T22:05:26.286Z,3.63
2019-03-01T22:10:26.181Z,3.56
2019-03-01T22:15:27.029Z,3.56
2019-03-01T22:20:26.279Z,3.63
2019-03-01T22:25:26.273Z,3.69
2019-03-01T22:30:26.231Z,3.69
2019-03-01T22:35:26.193Z,3.69
2019-03-01T22:40:27.854Z,3.69
2019-03-01T22:45:26.266Z,3.69
2019-03-01T22:50:26.236Z,3.75
2019-03-01T22:55:26.294Z,3.75
2019-03-01T23:00:31.516Z,3.75
2019-03-01T23:05:26.294Z,3.75
2019-03-01T23:10:26.256Z,3.81
2019-03-01T23:15:26.307Z,3.81
2019-03-01T23:20:27.280Z,3.88
2019-03-01T23:25:26.260Z,3.88
2019-03-01T23:30:29.033Z,3.94
2019-03-01T23:35:26.306Z,3.94
2019-03-01T23:40:26.264Z,3.94
2019-03-01T23:45:26.310Z,3.94
2019-03-01T23:50:31.470Z,3.94
2019-03-01T23:55:26.323Z,3.88
